createdAt,value
2023-04-20T16:12:12.869Z,13.49
2023-04-20T16:17:17.206Z,14.27
2023-04-20T16:22:21.253Z,14.65
2023-04-20T16:27:27.471Z,14.99
2023-04-20T16:32:31.754Z,15.34
2023-04-20T16:37:36.253Z,15.63
2023-04-20T16:42:42.400Z,15.88
2023-04-20T16:47:46.578Z,15.78
2023-04-20T16:52:50.784Z,15.68
2023-04-20T16:57:59.738Z,15.50
2023-04-20T17:03:06.298Z,15.19
2023-04-20T17:08:10.610Z,14.87
2023-04-20T17:13:16.989Z,14.69
2023-04-20T17:18:21.351Z,14.45
2023-04-20T17:23:25.882Z,14.13
2023-04-20T17:28:32.176Z,13.86
2023-04-20T17:33:36.317Z,13.61
2023-04-20T17:38:40.295Z,13.44
2023-04-20T17:43:46.273Z,13.38
2023-04-20T17:48:50.445Z,13.35
2023-04-20T17:53:54.578Z,13.31
2023-04-20T17:59:00.710Z,13.23
2023-04-20T18:04:05.066Z,13.02
2023-04-20T18:09:09.700Z,12.75
2023-04-20T18:14:15.842Z,12.59
2023-04-20T18:19:19.903Z,12.43
2023-04-20T18:24:24.170Z,12.34
2023-04-20T18:29:30.802Z,12.27
2023-04-20T18:34:34.910Z,12.24
2023-04-20T18:39:39.170Z,12.18
2023-04-20T18:44:45.431Z,12.18
2023-04-20T18:49:49.530Z,12.08
2023-04-20T18:54:54.876Z,12.05
2023-04-20T19:00:01.157Z,12.04
2023-04-20T19:05:05.599Z,11.99
2023-04-20T19:10:11.752Z,11.95
2023-04-20T19:15:24.739Z,11.89
2023-04-20T19:20:29.070Z,11.87
2023-04-20T19:25:33.595Z,11.84
2023-04-20T19:30:39.774Z,11.85
2023-04-20T19:35:49.922Z,11.86
2023-04-20T19:40:54.782Z,11.88
2023-04-20T19:46:00.927Z,11.91
2023-04-20T19:51:06.269Z,11.90
2023-04-20T19:56:10.737Z,11.86
2023-04-20T20:01:16.868Z,11.87
2023-04-20T20:06:21.251Z,11.80
2023-04-20T20:11:25.279Z,11.75
2023-04-20T20:16:31.337Z,11.69
2023-04-20T20:21:35.469Z,11.70
2023-04-20T20:26:39.523Z,11.74
2023-04-20T20:31:45.667Z,11.74
2023-04-20T20:36:50.868Z,11.71
2023-04-20T20:41:56.702Z,11.63
2023-04-20T20:47:03.004Z,11.55
2023-04-20T20:52:07.936Z,11.46
2023-04-20T20:57:12.455Z,11.32
2023-04-20T21:02:19.051Z,11.02
2023-04-20T21:07:23.400Z,10.82
2023-04-20T21:12:27.558Z,10.75
